sensor_id;sensor_type;location;lat;lon;timestamp;temperature;humidity
7218;DHT22;3650;53.580;10.094;2022-09-28T00:01:18;12.00;93.40
7218;DHT22;3650;53.580;10.094;2022-09-28T00:03:48;11.90;93.50
7218;DHT22;3650;53.580;10.094;2022-09-28T00:06:18;11.90;93.70
7218;DHT22;3650;53.580;10.094;2022-09-28T00:08:46;11.90;94.40
7218;DHT22;3650;53.580;10.094;2022-09-28T00:11:16;11.90;94.80
7218;DHT22;3650;53.580;10.094;2022-09-28T00:13:44;11.90;94.80
7218;DHT22;3650;53.580;10.094;2022-09-28T00:16:15;11.90;94.80
7218;DHT22;3650;53.580;10.094;2022-09-28T00:18:43;11.90;94.40
7218;DHT22;3650;53.580;10.094;2022-09-28T00:21:15;11.90;94.50
7218;DHT22;3650;53.580;10.094;2022-09-28T00:23:43;11.90;94.70
7218;DHT22;3650;53.580;10.094;2022-09-28T00:26:24;11.90;94.50
7218;DHT22;3650;53.580;10.094;2022-09-28T00:28:51;11.90;94.90
7218;DHT22;3650;53.580;10.094;2022-09-28T00:31:19;11.90;95.00
7218;DHT22;3650;53.580;10.094;2022-09-28T00:33:49;11.90;95.10
7218;DHT22;3650;53.580;10.094;2022-09-28T00:36:22;11.90;94.70
7218;DHT22;3650;53.580;10.094;2022-09-28T00:38:49;11.90;94.60
7218;DHT22;3650;53.580;10.094;2022-09-28T00:41:17;11.90;94.60
7218;DHT22;3650;53.580;10.094;2022-09-28T00:43:44;11.90;94.50
7218;DHT22;3650;53.580;10.094;2022-09-28T00:46:14;11.90;94.40
7218;DHT22;3650;53.580;10.094;2022-09-28T00:48:50;11.90;94.30
7218;DHT22;3650;53.580;10.094;2022-09-28T00:51:18;11.90;94.20
7218;DHT22;3650;53.580;10.094;2022-09-28T00:53:47;11.90;94.20
7218;DHT22;3650;53.580;10.094;2022-09-28T00:56:20;11.90;94.20
7218;DHT22;3650;53.580;10.094;2022-09-28T00:58:51;11.90;94.00
7218;DHT22;3650;53.580;10.094;2022-09-28T01:01:19;11.90;94.00
7218;DHT22;3650;53.580;10.094;2022-09-28T01:03:46;11.90;94.10
7218;DHT22;3650;53.580;10.094;2022-09-28T01:06:16;11.90;94.10
7218;DHT22;3650;53.580;10.094;2022-09-28T01:08:46;11.80;94.00
7218;DHT22;3650;53.580;10.094;2022-09-28T01:11:15;11.80;94.20
7218;DHT22;3650;53.580;10.094;2022-09-28T01:13:41;11.80;94.10
7218;DHT22;3650;53.580;10.094;2022-09-28T01:16:13;11.80;94.10
7218;DHT22;3650;53.580;10.094;2022-09-28T01:18:57;11.80;94.00
7218;DHT22;3650;53.580;10.094;2022-09-28T01:21:26;11.80;93.80
7218;DHT22;3650;53.580;10.094;2022-09-28T01:24:11;11.80;93.80
7218;DHT22;3650;53.580;10.094;2022-09-28T01:26:59;11.80;93.90
7218;DHT22;3650;53.580;10.094;2022-09-28T01:29:35;11.80;94.00
7218;DHT22;3650;53.580;10.094;2022-09-28T01:32:15;11.80;93.90
7218;DHT22;3650;53.580;10.094;2022-09-28T01:34:51;11.70;93.90
7218;DHT22;3650;53.580;10.094;2022-09-28T01:37:22;11.70;93.80
7218;DHT22;3650;53.580;10.094;2022-09-28T01:39:54;11.70;93.70
7218;DHT22;3650;53.580;10.094;2022-09-28T01:42:24;11.70;93.70
7218;DHT22;3650;53.580;10.094;2022-09-28T01:44:57;11.70;93.80
7218;DHT22;3650;53.580;10.094;2022-09-28T01:47:26;11.70;93.60
7218;DHT22;3650;53.580;10.094;2022-09-28T01:49:59;11.70;93.70
7218;DHT22;3650;53.580;10.094;2022-09-28T01:52:30;11.70;93.70
7218;DHT22;3650;53.580;10.094;2022-09-28T01:55:05;11.60;93.80
7218;DHT22;3650;53.580;10.094;2022-09-28T01:57:45;11.60;93.80
7218;DHT22;3650;53.580;10.094;2022-09-28T02:00:14;11.60;93.80
7218;DHT22;3650;53.580;10.094;2022-09-28T02:02:46;11.60;94.00
7218;DHT22;3650;53.580;10.094;2022-09-28T02:05:16;11.60;94.10
7218;DHT22;3650;53.580;10.094;2022-09-28T02:07:46;11.50;94.10
7218;DHT22;3650;53.580;10.094;2022-09-28T02:10:21;11.50;94.00
7218;DHT22;3650;53.580;10.094;2022-09-28T02:12:54;11.40;94.00
7218;DHT22;3650;53.580;10.094;2022-09-28T02:15:27;11.40;94.20
7218;DHT22;3650;53.580;10.094;2022-09-28T02:17:56;11.40;94.30
7218;DHT22;3650;53.580;10.094;2022-09-28T02:20:23;11.40;94.50
7218;DHT22;3650;53.580;10.094;2022-09-28T02:22:52;11.30;94.40
7218;DHT22;3650;53.580;10.094;2022-09-28T02:25:23;11.30;94.50
7218;DHT22;3650;53.580;10.094;2022-09-28T02:27:57;11.30;94.50
7218;DHT22;3650;53.580;10.094;2022-09-28T02:30:24;11.20;94.60
7218;DHT22;3650;53.580;10.094;2022-09-28T02:32:54;11.20;94.50
7218;DHT22;3650;53.580;10.094;2022-09-28T02:35:22;11.20;94.60
7218;DHT22;3650;53.580;10.094;2022-09-28T02:37:49;11.10;94.70
7218;DHT22;3650;53.580;10.094;2022-09-28T02:40:19;11.10;94.60
7218;DHT22;3650;53.580;10.094;2022-09-28T02:42:52;11.10;94.80
7218;DHT22;3650;53.580;10.094;2022-09-28T02:45:50;11.10;95.00
7218;DHT22;3650;53.580;10.094;2022-09-28T02:48:31;11.10;95.00
7218;DHT22;3650;53.580;10.094;2022-09-28T02:51:15;11.00;95.00
7218;DHT22;3650;53.580;10.094;2022-09-28T02:54:09;11.00;95.10
7218;DHT22;3650;53.580;10.094;2022-09-28T02:56:53;11.00;95.10
7218;DHT22;3650;53.580;10.094;2022-09-28T02:59:43;11.00;94.90
7218;DHT22;3650;53.580;10.094;2022-09-28T03:02:24;11.00;95.00
7218;DHT22;3650;53.580;10.094;2022-09-28T03:05:12;11.00;95.10
7218;DHT22;3650;53.580;10.094;2022-09-28T03:07:45;11.00;95.10
7218;DHT22;3650;53.580;10.094;2022-09-28T03:10:24;10.90;94.90
7218;DHT22;3650;53.580;10.094;2022-09-28T03:12:54;10.90;95.00
7218;DHT22;3650;53.580;10.094;2022-09-28T03:15:22;10.90;95.10
7218;DHT22;3650;53.580;10.094;2022-09-28T03:17:50;10.80;95.00
7218;DHT22;3650;53.580;10.094;2022-09-28T03:20:17;10.80;94.90
7218;DHT22;3650;53.580;10.094;2022-09-28T03:22:44;10.80;95.00
7218;DHT22;3650;53.580;10.094;2022-09-28T03:25:11;10.80;95.30
7218;DHT22;3650;53.580;10.094;2022-09-28T03:27:40;10.80;95.30
7218;DHT22;3650;53.580;10.094;2022-09-28T03:30:12;10.70;95.20
7218;DHT22;3650;53.580;10.094;2022-09-28T03:32:39;10.70;95.20
7218;DHT22;3650;53.580;10.094;2022-09-28T03:35:08;10.70;95.20
7218;DHT22;3650;53.580;10.094;2022-09-28T03:37:36;10.70;95.20
7218;DHT22;3650;53.580;10.094;2022-09-28T03:40:03;10.70;95.20
7218;DHT22;3650;53.580;10.094;2022-09-28T03:42:34;10.70;95.20
7218;DHT22;3650;53.580;10.094;2022-09-28T03:45:01;10.70;95.20
7218;DHT22;3650;53.580;10.094;2022-09-28T03:47:31;10.50;95.20
7218;DHT22;3650;53.580;10.094;2022-09-28T03:49:58;10.60;95.40
7218;DHT22;3650;53.580;10.094;2022-09-28T03:52:26;10.60;95.20
7218;DHT22;3650;53.580;10.094;2022-09-28T03:54:53;10.60;95.40
7218;DHT22;3650;53.580;10.094;2022-09-28T03:57:19;10.60;95.50
7218;DHT22;3650;53.580;10.094;2022-09-28T03:59:46;10.60;95.60
7218;DHT22;3650;53.580;10.094;2022-09-28T04:02:13;10.60;95.60
7218;DHT22;3650;53.580;10.094;2022-09-28T04:04:39;10.60;95.60
7218;DHT22;3650;53.580;10.094;2022-09-28T04:07:06;10.50;95.50
7218;DHT22;3650;53.580;10.094;2022-09-28T04:09:34;10.60;95.20
7218;DHT22;3650;53.580;10.094;2022-09-28T04:12:01;10.50;95.20
7218;DHT22;3650;53.580;10.094;2022-09-28T04:14:28;10.50;95.30
7218;DHT22;3650;53.580;10.094;2022-09-28T04:16:54;10.40;95.40
7218;DHT22;3650;53.580;10.094;2022-09-28T04:19:27;10.40;95.70
7218;DHT22;3650;53.580;10.094;2022-09-28T04:21:54;10.40;95.90
7218;DHT22;3650;53.580;10.094;2022-09-28T04:24:21;10.40;95.90
7218;DHT22;3650;53.580;10.094;2022-09-28T04:26:49;10.40;95.90
7218;DHT22;3650;53.580;10.094;2022-09-28T04:29:15;10.40;95.80
7218;DHT22;3650;53.580;10.094;2022-09-28T04:31:43;10.40;95.80
7218;DHT22;3650;53.580;10.094;2022-09-28T04:34:10;10.40;95.80
7218;DHT22;3650;53.580;10.094;2022-09-28T04:36:37;10.30;95.80
7218;DHT22;3650;53.580;10.094;2022-09-28T04:39:04;10.30;95.70
7218;DHT22;3650;53.580;10.094;2022-09-28T04:41:31;10.40;95.80
7218;DHT22;3650;53.580;10.094;2022-09-28T04:44:00;10.30;95.70
7218;DHT22;3650;53.580;10.094;2022-09-28T04:46:27;10.30;95.60
7218;DHT22;3650;53.580;10.094;2022-09-28T04:48:54;10.30;95.90
7218;DHT22;3650;53.580;10.094;2022-09-28T04:51:20;10.30;95.90
7218;DHT22;3650;53.580;10.094;2022-09-28T04:53:47;10.30;96.00
7218;DHT22;3650;53.580;10.094;2022-09-28T04:56:15;10.30;96.00
7218;DHT22;3650;53.580;10.094;2022-09-28T04:58:42;10.30;95.80
7218;DHT22;3650;53.580;10.094;2022-09-28T05:01:13;10.30;95.60
7218;DHT22;3650;53.580;10.094;2022-09-28T05:03:40;10.40;96.20
7218;DHT22;3650;53.580;10.094;2022-09-28T05:06:07;10.30;96.30
7218;DHT22;3650;53.580;10.094;2022-09-28T05:08:35;10.30;96.30
7218;DHT22;3650;53.580;10.094;2022-09-28T05:11:04;10.30;96.30
7218;DHT22;3650;53.580;10.094;2022-09-28T05:13:40;10.30;96.10
7218;DHT22;3650;53.580;10.094;2022-09-28T05:16:14;10.20;96.30
7218;DHT22;3650;53.580;10.094;2022-09-28T05:18:41;10.30;96.50
7218;DHT22;3650;53.580;10.094;2022-09-28T05:21:09;10.30;96.20
7218;DHT22;3650;53.580;10.094;2022-09-28T05:23:45;10.30;96.60
7218;DHT22;3650;53.580;10.094;2022-09-28T05:26:12;10.30;96.70
7218;DHT22;3650;53.580;10.094;2022-09-28T05:28:39;10.30;96.50
7218;DHT22;3650;53.580;10.094;2022-09-28T05:31:33;10.20;96.30
7218;DHT22;3650;53.580;10.094;2022-09-28T05:34:00;10.30;96.60
7218;DHT22;3650;53.580;10.094;2022-09-28T05:36:27;10.30;96.70
7218;DHT22;3650;53.580;10.094;2022-09-28T05:38:55;10.30;96.30
7218;DHT22;3650;53.580;10.094;2022-09-28T05:41:31;10.30;95.90
7218;DHT22;3650;53.580;10.094;2022-09-28T05:43:58;10.30;95.70
7218;DHT22;3650;53.580;10.094;2022-09-28T05:46:24;10.30;95.60
7218;DHT22;3650;53.580;10.094;2022-09-28T05:48:53;10.30;95.70
7218;DHT22;3650;53.580;10.094;2022-09-28T05:51:20;10.30;95.80
7218;DHT22;3650;53.580;10.094;2022-09-28T05:53:59;10.30;95.80
7218;DHT22;3650;53.580;10.094;2022-09-28T05:56:40;10.30;95.80
7218;DHT22;3650;53.580;10.094;2022-09-28T05:59:06;10.30;96.00
7218;DHT22;3650;53.580;10.094;2022-09-28T06:01:33;10.30;95.90
7218;DHT22;3650;53.580;10.094;2022-09-28T06:04:09;10.30;95.80
7218;DHT22;3650;53.580;10.094;2022-09-28T06:06:51;10.30;95.80
7218;DHT22;3650;53.580;10.094;2022-09-28T06:09:18;10.20;96.00
7218;DHT22;3650;53.580;10.094;2022-09-28T06:11:56;10.30;96.10
7218;DHT22;3650;53.580;10.094;2022-09-28T06:14:23;10.30;96.30
7218;DHT22;3650;53.580;10.094;2022-09-28T06:16:50;10.30;96.20
7218;DHT22;3650;53.580;10.094;2022-09-28T06:19:19;10.30;96.20
7218;DHT22;3650;53.580;10.094;2022-09-28T06:21:46;10.30;96.40
7218;DHT22;3650;53.580;10.094;2022-09-28T06:24:13;10.30;96.00
7218;DHT22;3650;53.580;10.094;2022-09-28T06:26:40;10.20;95.10
7218;DHT22;3650;53.580;10.094;2022-09-28T06:29:07;10.20;95.20
7218;DHT22;3650;53.580;10.094;2022-09-28T06:31:35;10.10;95.90
7218;DHT22;3650;53.580;10.094;2022-09-28T06:34:10;10.20;96.20
7218;DHT22;3650;53.580;10.094;2022-09-28T06:36:39;10.20;96.30
7218;DHT22;3650;53.580;10.094;2022-09-28T06:39:06;10.20;96.30
7218;DHT22;3650;53.580;10.094;2022-09-28T06:41:33;10.20;96.40
7218;DHT22;3650;53.580;10.094;2022-09-28T06:44:09;10.30;96.80
7218;DHT22;3650;53.580;10.094;2022-09-28T06:46:35;10.20;96.70
7218;DHT22;3650;53.580;10.094;2022-09-28T06:49:04;10.30;96.60
7218;DHT22;3650;53.580;10.094;2022-09-28T06:51:34;10.30;96.30
7218;DHT22;3650;53.580;10.094;2022-09-28T06:54:03;10.30;96.10
7218;DHT22;3650;53.580;10.094;2022-09-28T06:56:31;10.30;96.00
7218;DHT22;3650;53.580;10.094;2022-09-28T06:59:02;10.30;96.30
7218;DHT22;3650;53.580;10.094;2022-09-28T07:01:30;10.40;95.90
7218;DHT22;3650;53.580;10.094;2022-09-28T07:03:58;10.30;95.50
7218;DHT22;3650;53.580;10.094;2022-09-28T07:06:34;10.30;95.40
7218;DHT22;3650;53.580;10.094;2022-09-28T07:09:11;10.30;95.40
7218;DHT22;3650;53.580;10.094;2022-09-28T07:11:38;10.30;95.70
7218;DHT22;3650;53.580;10.094;2022-09-28T07:14:13;10.30;95.70
7218;DHT22;3650;53.580;10.094;2022-09-28T07:16:56;10.20;95.50
7218;DHT22;3650;53.580;10.094;2022-09-28T07:19:29;10.30;95.70
7218;DHT22;3650;53.580;10.094;2022-09-28T07:21:56;10.20;95.30
7218;DHT22;3650;53.580;10.094;2022-09-28T07:24:24;10.30;95.50
7218;DHT22;3650;53.580;10.094;2022-09-28T07:26:52;10.30;95.90
7218;DHT22;3650;53.580;10.094;2022-09-28T07:29:33;10.30;96.10
7218;DHT22;3650;53.580;10.094;2022-09-28T07:32:00;10.30;96.10
7218;DHT22;3650;53.580;10.094;2022-09-28T07:34:27;10.30;96.00
7218;DHT22;3650;53.580;10.094;2022-09-28T07:36:54;10.30;96.00
7218;DHT22;3650;53.580;10.094;2022-09-28T07:39:36;10.30;96.10
7218;DHT22;3650;53.580;10.094;2022-09-28T07:42:23;10.30;95.80
7218;DHT22;3650;53.580;10.094;2022-09-28T07:44:50;10.30;95.70
7218;DHT22;3650;53.580;10.094;2022-09-28T07:47:17;10.40;95.90
7218;DHT22;3650;53.580;10.094;2022-09-28T07:50:02;10.30;95.10
7218;DHT22;3650;53.580;10.094;2022-09-28T07:52:29;10.30;95.10
7218;DHT22;3650;53.580;10.094;2022-09-28T07:54:57;10.30;95.80
7218;DHT22;3650;53.580;10.094;2022-09-28T07:57:27;10.30;95.90
7218;DHT22;3650;53.580;10.094;2022-09-28T08:00:01;10.30;95.90
7218;DHT22;3650;53.580;10.094;2022-09-28T08:02:30;10.30;95.80
7218;DHT22;3650;53.580;10.094;2022-09-28T08:05:07;10.30;95.70
7218;DHT22;3650;53.580;10.094;2022-09-28T08:07:35;10.30;95.30
7218;DHT22;3650;53.580;10.094;2022-09-28T08:10:05;10.30;95.10
7218;DHT22;3650;53.580;10.094;2022-09-28T08:12:33;10.40;95.20
7218;DHT22;3650;53.580;10.094;2022-09-28T08:15:00;10.30;95.20
7218;DHT22;3650;53.580;10.094;2022-09-28T08:17:31;10.40;95.80
7218;DHT22;3650;53.580;10.094;2022-09-28T08:20:02;10.40;96.00
7218;DHT22;3650;53.580;10.094;2022-09-28T08:22:51;10.40;96.10
7218;DHT22;3650;53.580;10.094;2022-09-28T08:25:22;10.50;96.10
7218;DHT22;3650;53.580;10.094;2022-09-28T08:27:53;10.50;95.70
7218;DHT22;3650;53.580;10.094;2022-09-28T08:30:27;10.50;95.20
7218;DHT22;3650;53.580;10.094;2022-09-28T08:32:54;10.50;95.20
7218;DHT22;3650;53.580;10.094;2022-09-28T08:35:21;10.50;95.60
7218;DHT22;3650;53.580;10.094;2022-09-28T08:37:53;10.50;96.00
7218;DHT22;3650;53.580;10.094;2022-09-28T08:40:23;10.50;96.00
7218;DHT22;3650;53.580;10.094;2022-09-28T08:42:53;10.60;96.10
7218;DHT22;3650;53.580;10.094;2022-09-28T08:45:26;10.60;96.10
7218;DHT22;3650;53.580;10.094;2022-09-28T08:48:00;10.60;96.00
7218;DHT22;3650;53.580;10.094;2022-09-28T08:50:54;10.60;96.00
7218;DHT22;3650;53.580;10.094;2022-09-28T08:53:34;10.70;96.10
7218;DHT22;3650;53.580;10.094;2022-09-28T08:56:23;10.70;95.90
7218;DHT22;3650;53.580;10.094;2022-09-28T08:58:56;10.70;96.10
7218;DHT22;3650;53.580;10.094;2022-09-28T09:01:31;10.80;95.30
7218;DHT22;3650;53.580;10.094;2022-09-28T09:04:02;10.80;95.10
7218;DHT22;3650;53.580;10.094;2022-09-28T09:06:39;10.80;95.30
7218;DHT22;3650;53.580;10.094;2022-09-28T09:09:15;10.80;95.30
7218;DHT22;3650;53.580;10.094;2022-09-28T09:11:55;10.90;95.30
7218;DHT22;3650;53.580;10.094;2022-09-28T09:14:42;10.80;94.00
7218;DHT22;3650;53.580;10.094;2022-09-28T09:17:20;10.80;94.60
7218;DHT22;3650;53.580;10.094;2022-09-28T09:19:57;10.80;94.50
7218;DHT22;3650;53.580;10.094;2022-09-28T09:22:37;10.80;94.80
7218;DHT22;3650;53.580;10.094;2022-09-28T09:25:15;10.80;94.50
7218;DHT22;3650;53.580;10.094;2022-09-28T09:27:54;10.80;95.20
7218;DHT22;3650;53.580;10.094;2022-09-28T09:30:40;10.80;95.80
7218;DHT22;3650;53.580;10.094;2022-09-28T09:33:33;10.80;96.10
7218;DHT22;3650;53.580;10.094;2022-09-28T09:36:15;10.80;96.00
7218;DHT22;3650;53.580;10.094;2022-09-28T09:38:52;10.90;96.00
7218;DHT22;3650;53.580;10.094;2022-09-28T09:41:35;11.00;96.10
7218;DHT22;3650;53.580;10.094;2022-09-28T09:44:41;11.00;96.00
7218;DHT22;3650;53.580;10.094;2022-09-28T09:47:18;11.10;95.80
7218;DHT22;3650;53.580;10.094;2022-09-28T09:50:02;11.20;95.40
7218;DHT22;3650;53.580;10.094;2022-09-28T09:52:44;11.20;95.60
7218;DHT22;3650;53.580;10.094;2022-09-28T09:55:15;11.30;95.40
7218;DHT22;3650;53.580;10.094;2022-09-28T09:57:50;11.30;94.60
7218;DHT22;3650;53.580;10.094;2022-09-28T10:00:20;11.30;94.50
7218;DHT22;3650;53.580;10.094;2022-09-28T10:02:48;11.40;94.60
7218;DHT22;3650;53.580;10.094;2022-09-28T10:05:19;11.50;94.50
7218;DHT22;3650;53.580;10.094;2022-09-28T10:07:55;11.50;93.80
7218;DHT22;3650;53.580;10.094;2022-09-28T10:10:33;11.50;93.20
7218;DHT22;3650;53.580;10.094;2022-09-28T10:13:02;11.60;92.90
7218;DHT22;3650;53.580;10.094;2022-09-28T10:15:32;11.60;93.00
7218;DHT22;3650;53.580;10.094;2022-09-28T10:18:04;11.60;92.30
7218;DHT22;3650;53.580;10.094;2022-09-28T10:20:37;11.50;92.30
7218;DHT22;3650;53.580;10.094;2022-09-28T10:23:14;11.60;92.10
7218;DHT22;3650;53.580;10.094;2022-09-28T10:25:43;11.60;92.10
7218;DHT22;3650;53.580;10.094;2022-09-28T10:28:16;11.60;93.20
7218;DHT22;3650;53.580;10.094;2022-09-28T10:30:46;11.60;93.80
7218;DHT22;3650;53.580;10.094;2022-09-28T10:33:30;11.70;93.70
7218;DHT22;3650;53.580;10.094;2022-09-28T10:35:59;11.70;93.70
7218;DHT22;3650;53.580;10.094;2022-09-28T10:38:33;11.80;94.00
7218;DHT22;3650;53.580;10.094;2022-09-28T10:41:08;11.80;94.00
7218;DHT22;3650;53.580;10.094;2022-09-28T10:43:39;11.90;93.80
7218;DHT22;3650;53.580;10.094;2022-09-28T10:46:24;11.90;93.00
7218;DHT22;3650;53.580;10.094;2022-09-28T10:48:53;12.00;92.80
7218;DHT22;3650;53.580;10.094;2022-09-28T10:51:38;12.10;93.00
7218;DHT22;3650;53.580;10.094;2022-09-28T10:54:14;12.10;93.10
7218;DHT22;3650;53.580;10.094;2022-09-28T10:56:50;12.20;92.80
7218;DHT22;3650;53.580;10.094;2022-09-28T10:59:40;12.30;92.50
7218;DHT22;3650;53.580;10.094;2022-09-28T11:02:21;12.30;91.40
7218;DHT22;3650;53.580;10.094;2022-09-28T11:04:53;12.40;91.30
7218;DHT22;3650;53.580;10.094;2022-09-28T11:07:23;12.50;91.30
7218;DHT22;3650;53.580;10.094;2022-09-28T11:09:51;12.60;91.10
7218;DHT22;3650;53.580;10.094;2022-09-28T11:12:24;12.60;90.60
7218;DHT22;3650;53.580;10.094;2022-09-28T11:14:57;12.60;90.40
7218;DHT22;3650;53.580;10.094;2022-09-28T11:17:30;12.70;90.20
7218;DHT22;3650;53.580;10.094;2022-09-28T11:19:59;12.70;90.50
7218;DHT22;3650;53.580;10.094;2022-09-28T11:22:28;12.80;90.30
7218;DHT22;3650;53.580;10.094;2022-09-28T11:25:13;12.80;90.00
7218;DHT22;3650;53.580;10.094;2022-09-28T11:27:54;12.90;88.40
7218;DHT22;3650;53.580;10.094;2022-09-28T11:30:24;13.00;86.90
7218;DHT22;3650;53.580;10.094;2022-09-28T11:32:55;13.00;86.50
7218;DHT22;3650;53.580;10.094;2022-09-28T11:35:26;13.10;85.00
7218;DHT22;3650;53.580;10.094;2022-09-28T11:38:06;13.20;85.20
7218;DHT22;3650;53.580;10.094;2022-09-28T11:40:50;13.30;85.80
7218;DHT22;3650;53.580;10.094;2022-09-28T11:43:32;13.30;83.50
7218;DHT22;3650;53.580;10.094;2022-09-28T11:46:07;13.40;82.10
7218;DHT22;3650;53.580;10.094;2022-09-28T11:48:43;13.50;82.50
7218;DHT22;3650;53.580;10.094;2022-09-28T11:51:15;13.60;80.10
7218;DHT22;3650;53.580;10.094;2022-09-28T11:53:48;13.60;79.60
7218;DHT22;3650;53.580;10.094;2022-09-28T11:56:28;13.70;78.20
7218;DHT22;3650;53.580;10.094;2022-09-28T11:59:02;13.70;77.70
7218;DHT22;3650;53.580;10.094;2022-09-28T12:01:35;13.70;78.00
7218;DHT22;3650;53.580;10.094;2022-09-28T12:04:10;13.70;78.60
7218;DHT22;3650;53.580;10.094;2022-09-28T12:06:40;13.80;79.00
7218;DHT22;3650;53.580;10.094;2022-09-28T12:09:13;13.80;78.70
7218;DHT22;3650;53.580;10.094;2022-09-28T12:11:48;13.80;79.10
7218;DHT22;3650;53.580;10.094;2022-09-28T12:14:22;13.80;79.30
7218;DHT22;3650;53.580;10.094;2022-09-28T12:16:54;13.80;79.50
7218;DHT22;3650;53.580;10.094;2022-09-28T12:19:28;13.70;77.40
7218;DHT22;3650;53.580;10.094;2022-09-28T12:21:59;13.70;77.10
7218;DHT22;3650;53.580;10.094;2022-09-28T12:24:31;13.70;77.60
7218;DHT22;3650;53.580;10.094;2022-09-28T12:27:04;13.70;79.20
7218;DHT22;3650;53.580;10.094;2022-09-28T12:29:38;13.80;81.30
7218;DHT22;3650;53.580;10.094;2022-09-28T12:32:13;13.90;72.30
7218;DHT22;3650;53.580;10.094;2022-09-28T12:34:47;13.90;76.20
7218;DHT22;3650;53.580;10.094;2022-09-28T12:37:36;14.00;70.60
7218;DHT22;3650;53.580;10.094;2022-09-28T12:43:44;14.00;73.50
7218;DHT22;3650;53.580;10.094;2022-09-28T12:46:30;14.00;70.00
7218;DHT22;3650;53.580;10.094;2022-09-28T12:49:18;14.00;69.90
7218;DHT22;3650;53.580;10.094;2022-09-28T12:51:51;14.00;68.90
7218;DHT22;3650;53.580;10.094;2022-09-28T12:54:48;14.00;68.40
7218;DHT22;3650;53.580;10.094;2022-09-28T12:57:35;14.00;68.70
7218;DHT22;3650;53.580;10.094;2022-09-28T13:00:05;14.00;67.60
7218;DHT22;3650;53.580;10.094;2022-09-28T13:06:14;14.00;68.30
7218;DHT22;3650;53.580;10.094;2022-09-28T13:08:58;13.90;67.90
7218;DHT22;3650;53.580;10.094;2022-09-28T13:11:42;13.90;66.30
7218;DHT22;3650;53.580;10.094;2022-09-28T13:14:41;13.80;65.10
7218;DHT22;3650;53.580;10.094;2022-09-28T13:17:21;13.80;65.70
7218;DHT22;3650;53.580;10.094;2022-09-28T13:19:57;13.80;66.70
7218;DHT22;3650;53.580;10.094;2022-09-28T13:22:30;13.70;66.70
7218;DHT22;3650;53.580;10.094;2022-09-28T13:25:05;13.60;65.90
7218;DHT22;3650;53.580;10.094;2022-09-28T13:27:49;13.60;66.50
7218;DHT22;3650;53.580;10.094;2022-09-28T13:30:20;13.50;65.70
7218;DHT22;3650;53.580;10.094;2022-09-28T13:32:47;13.50;66.90
7218;DHT22;3650;53.580;10.094;2022-09-28T13:35:17;13.50;67.60
7218;DHT22;3650;53.580;10.094;2022-09-28T13:37:44;13.50;68.10
7218;DHT22;3650;53.580;10.094;2022-09-28T13:40:13;13.40;67.40
7218;DHT22;3650;53.580;10.094;2022-09-28T13:42:55;13.40;67.90
7218;DHT22;3650;53.580;10.094;2022-09-28T13:45:40;13.40;68.70
7218;DHT22;3650;53.580;10.094;2022-09-28T13:48:35;13.40;68.50
7218;DHT22;3650;53.580;10.094;2022-09-28T13:51:34;13.40;68.20
7218;DHT22;3650;53.580;10.094;2022-09-28T13:54:19;13.30;69.30
7218;DHT22;3650;53.580;10.094;2022-09-28T13:56:57;13.30;69.70
7218;DHT22;3650;53.580;10.094;2022-09-28T13:59:32;13.40;70.30
7218;DHT22;3650;53.580;10.094;2022-09-28T14:02:23;13.40;69.10
7218;DHT22;3650;53.580;10.094;2022-09-28T14:04:58;13.40;69.10
7218;DHT22;3650;53.580;10.094;2022-09-28T14:08:09;13.40;68.30
7218;DHT22;3650;53.580;10.094;2022-09-28T14:10:46;13.40;66.30
7218;DHT22;3650;53.580;10.094;2022-09-28T14:16:33;13.40;64.80
7218;DHT22;3650;53.580;10.094;2022-09-28T14:19:08;13.40;64.70
7218;DHT22;3650;53.580;10.094;2022-09-28T14:24:50;13.50;63.20
7218;DHT22;3650;53.580;10.094;2022-09-28T14:27:39;13.30;63.30
7218;DHT22;3650;53.580;10.094;2022-09-28T14:30:21;13.40;62.70
7218;DHT22;3650;53.580;10.094;2022-09-28T14:33:14;13.40;59.70
7218;DHT22;3650;53.580;10.094;2022-09-28T14:35:48;13.40;58.30
7218;DHT22;3650;53.580;10.094;2022-09-28T14:38:18;13.40;56.60
7218;DHT22;3650;53.580;10.094;2022-09-28T14:41:07;13.50;57.50
7218;DHT22;3650;53.580;10.094;2022-09-28T14:44:06;13.40;56.50
7218;DHT22;3650;53.580;10.094;2022-09-28T14:46:42;13.50;57.90
7218;DHT22;3650;53.580;10.094;2022-09-28T14:49:43;13.50;58.40
7218;DHT22;3650;53.580;10.094;2022-09-28T14:52:16;13.60;58.50
7218;DHT22;3650;53.580;10.094;2022-09-28T14:54:49;13.60;57.50
7218;DHT22;3650;53.580;10.094;2022-09-28T14:57:21;13.60;58.70
7218;DHT22;3650;53.580;10.094;2022-09-28T14:59:48;13.60;58.80
7218;DHT22;3650;53.580;10.094;2022-09-28T15:02:20;13.60;58.50
7218;DHT22;3650;53.580;10.094;2022-09-28T15:04:54;13.70;58.50
7218;DHT22;3650;53.580;10.094;2022-09-28T15:07:42;13.70;58.90
7218;DHT22;3650;53.580;10.094;2022-09-28T15:10:25;13.70;58.70
7218;DHT22;3650;53.580;10.094;2022-09-28T15:13:04;13.70;60.00
7218;DHT22;3650;53.580;10.094;2022-09-28T15:15:33;13.70;61.30
7218;DHT22;3650;53.580;10.094;2022-09-28T15:18:31;13.80;61.70
7218;DHT22;3650;53.580;10.094;2022-09-28T15:21:13;13.80;59.30
7218;DHT22;3650;53.580;10.094;2022-09-28T15:23:42;13.80;56.50
7218;DHT22;3650;53.580;10.094;2022-09-28T15:26:28;13.80;56.00
7218;DHT22;3650;53.580;10.094;2022-09-28T15:28:57;13.80;56.50
7218;DHT22;3650;53.580;10.094;2022-09-28T15:31:25;13.80;56.90
7218;DHT22;3650;53.580;10.094;2022-09-28T15:33:53;13.80;57.40
7218;DHT22;3650;53.580;10.094;2022-09-28T15:36:45;13.80;57.30
7218;DHT22;3650;53.580;10.094;2022-09-28T15:39:29;13.80;57.40
7218;DHT22;3650;53.580;10.094;2022-09-28T15:42:00;13.80;56.70
7218;DHT22;3650;53.580;10.094;2022-09-28T15:44:31;13.80;57.00
7218;DHT22;3650;53.580;10.094;2022-09-28T15:47:06;13.70;57.50
7218;DHT22;3650;53.580;10.094;2022-09-28T15:49:39;13.70;58.80
7218;DHT22;3650;53.580;10.094;2022-09-28T15:52:21;13.70;59.90
7218;DHT22;3650;53.580;10.094;2022-09-28T15:54:49;13.70;58.30
7218;DHT22;3650;53.580;10.094;2022-09-28T15:57:43;13.70;58.00
7218;DHT22;3650;53.580;10.094;2022-09-28T16:00:24;13.70;57.70
7218;DHT22;3650;53.580;10.094;2022-09-28T16:03:17;13.60;57.80
7218;DHT22;3650;53.580;10.094;2022-09-28T16:05:48;13.60;59.50
7218;DHT22;3650;53.580;10.094;2022-09-28T16:08:18;13.60;60.80
7218;DHT22;3650;53.580;10.094;2022-09-28T16:10:55;13.60;60.50
7218;DHT22;3650;53.580;10.094;2022-09-28T16:13:23;13.60;60.20
7218;DHT22;3650;53.580;10.094;2022-09-28T16:15:54;13.60;60.70
7218;DHT22;3650;53.580;10.094;2022-09-28T16:18:24;13.60;62.80
7218;DHT22;3650;53.580;10.094;2022-09-28T16:20:58;13.60;62.00
7218;DHT22;3650;53.580;10.094;2022-09-28T16:23:35;13.60;63.40
7218;DHT22;3650;53.580;10.094;2022-09-28T16:26:04;13.50;66.90
7218;DHT22;3650;53.580;10.094;2022-09-28T16:28:47;13.50;68.20
7218;DHT22;3650;53.580;10.094;2022-09-28T16:31:31;13.50;67.40
7218;DHT22;3650;53.580;10.094;2022-09-28T16:34:17;13.50;65.30
7218;DHT22;3650;53.580;10.094;2022-09-28T16:36:46;13.40;65.00
7218;DHT22;3650;53.580;10.094;2022-09-28T16:39:17;13.40;66.40
7218;DHT22;3650;53.580;10.094;2022-09-28T16:41:47;13.40;68.40